createdAt,value
2018-08-04T00:47:13.918Z,26.20
2018-08-04T00:50:38.621Z,26.03
2018-08-04T00:54:03.273Z,26.15
2018-08-04T00:57:27.981Z,25.99
2018-08-04T01:00:52.627Z,25.99
2018-08-04T01:04:17.363Z,26.22
2018-08-04T01:07:42.039Z,26.18
2018-08-04T01:11:06.979Z,26.07
2018-08-04T01:14:31.616Z,25.83
2018-08-04T01:17:56.274Z,25.91
2018-08-04T01:21:20.950Z,25.90
2018-08-04T01:24:45.733Z,25.75
2018-08-04T01:28:10.426Z,25.96
2018-08-04T01:31:35.063Z,25.78
2018-08-04T01:34:59.749Z,25.88
2018-08-04T01:38:24.377Z,25.86
2018-08-04T01:41:49.033Z,25.82
2018-08-04T01:45:13.679Z,25.67
2018-08-04T01:48:38.309Z,25.69
2018-08-04T01:52:02.954Z,25.79
2018-08-04T01:55:28.594Z,25.60
2018-08-04T01:58:53.237Z,25.70
2018-08-04T02:02:17.884Z,25.69
2018-08-04T02:05:42.567Z,25.71
2018-08-04T02:09:09.504Z,25.68
2018-08-04T02:12:34.139Z,25.45
2018-08-04T02:15:59.393Z,25.36
2018-08-04T02:19:23.997Z,25.58
2018-08-04T02:22:48.655Z,25.59
2018-08-04T02:26:13.268Z,25.40
2018-08-04T02:29:37.918Z,25.43
2018-08-04T02:33:02.604Z,25.42
2018-08-04T02:36:27.265Z,25.54
2018-08-04T02:39:52.003Z,25.43
2018-08-04T02:43:16.686Z,25.35
2018-08-04T02:46:41.327Z,25.18
2018-08-04T02:50:07.131Z,25.31
2018-08-04T02:53:31.806Z,25.17
2018-08-04T02:56:57.538Z,25.16
2018-08-04T03:00:22.145Z,24.97
2018-08-04T03:03:46.755Z,24.97
2018-08-04T03:07:11.537Z,25.18
2018-08-04T03:10:36.151Z,25.19
2018-08-04T03:14:01.606Z,25.12
2018-08-04T03:17:26.303Z,25.20
2018-08-04T03:20:50.977Z,25.26
2018-08-04T03:24:15.591Z,25.23
2018-08-04T03:27:40.301Z,25.21
2018-08-04T03:31:04.962Z,25.18
2018-08-04T03:34:29.620Z,25.17
2018-08-04T03:37:54.285Z,25.25
2018-08-04T03:41:18.976Z,25.23
2018-08-04T03:44:43.688Z,24.91
2018-08-04T03:48:08.349Z,24.75
2018-08-04T03:51:32.997Z,24.75
2018-08-04T03:54:57.643Z,25.11
2018-08-04T03:58:24.137Z,25.13
2018-08-04T04:01:48.807Z,24.98
2018-08-04T04:05:13.484Z,24.97
2018-08-04T04:08:38.121Z,24.63
2018-08-04T04:12:02.760Z,24.41
2018-08-04T04:15:27.441Z,24.60
2018-08-04T04:18:52.112Z,24.45
2018-08-04T04:22:16.765Z,24.29
2018-08-04T04:25:41.505Z,24.21
2018-08-04T04:29:06.135Z,24.26
2018-08-04T04:32:31.749Z,24.07
2018-08-04T04:35:56.426Z,24.04
2018-08-04T04:39:21.221Z,23.93
2018-08-04T04:42:46.753Z,23.99
2018-08-04T04:46:11.393Z,23.98
2018-08-04T04:49:36.046Z,24.02
2018-08-04T04:53:00.673Z,24.38
2018-08-04T04:56:25.346Z,24.23
2018-08-04T04:59:50.039Z,24.42
2018-08-04T05:03:14.687Z,24.66
2018-08-04T05:06:39.333Z,24.75
2018-08-04T05:10:04.080Z,24.72
2018-08-04T05:13:28.800Z,24.74
2018-08-04T05:16:53.489Z,24.74
2018-08-04T05:20:18.173Z,24.92
2018-08-04T05:23:42.821Z,24.92
2018-08-04T05:27:07.597Z,24.96
2018-08-04T05:30:32.267Z,25.11
2018-08-04T05:33:56.901Z,25.13
2018-08-04T05:37:21.582Z,25.20
2018-08-04T05:40:46.244Z,25.24
2018-08-04T05:44:10.868Z,25.42
2018-08-04T05:47:35.581Z,25.43
2018-08-04T05:51:00.194Z,25.50
2018-08-04T05:54:24.792Z,25.48
2018-08-04T05:57:49.443Z,25.62
2018-08-04T06:01:14.343Z,25.68
2018-08-04T06:04:39.005Z,25.62
2018-08-04T06:08:03.844Z,25.83
2018-08-04T06:11:28.509Z,25.80
2018-08-04T06:14:53.276Z,25.91
2018-08-04T06:18:17.957Z,25.89
2018-08-04T06:21:42.573Z,25.87
2018-08-04T06:25:07.447Z,26.01
2018-08-04T06:28:32.348Z,26.09
2018-08-04T06:31:57.189Z,26.32
2018-08-04T06:35:21.871Z,26.21
2018-08-04T06:38:46.691Z,26.38
2018-08-04T06:42:11.458Z,26.50
2018-08-04T06:45:36.121Z,26.55
2018-08-04T06:49:00.852Z,26.58
2018-08-04T06:52:25.596Z,26.54
2018-08-04T06:55:50.253Z,26.71
2018-08-04T06:59:14.937Z,26.68
2018-08-04T07:02:39.611Z,26.84
2018-08-04T07:06:05.078Z,26.86
2018-08-04T07:09:29.711Z,26.99
2018-08-04T07:12:54.489Z,27.03
2018-08-04T07:16:19.213Z,27.18
2018-08-04T07:19:43.876Z,27.21
2018-08-04T07:23:08.622Z,27.23
2018-08-04T07:26:33.441Z,27.31
2018-08-04T07:29:58.207Z,27.26
2018-08-04T07:33:22.901Z,27.45
2018-08-04T07:36:47.888Z,27.53
2018-08-04T07:40:13.188Z,27.58
2018-08-04T07:43:37.828Z,27.69
2018-08-04T07:47:02.612Z,27.92
2018-08-04T07:50:27.404Z,28.16
2018-08-04T07:53:52.267Z,28.14
2018-08-04T07:57:17.785Z,28.19
2018-08-04T08:00:42.519Z,28.27
2018-08-04T08:13:07.165Z,28.53
2018-08-04T08:16:32.419Z,28.67
2018-08-04T08:19:57.101Z,28.81
2018-08-04T08:36:51.637Z,29.35
2018-08-04T08:40:16.368Z,29.34
2018-08-04T08:43:41.128Z,29.38
2018-08-04T08:47:05.967Z,29.31
2018-08-04T08:50:30.648Z,29.51
2018-08-04T08:53:57.556Z,29.45
2018-08-04T08:57:22.210Z,29.65
2018-08-04T09:00:46.886Z,29.70
2018-08-04T09:04:11.530Z,29.78
2018-08-04T09:07:36.236Z,29.91
2018-08-04T09:11:00.942Z,29.78
2018-08-04T09:14:25.630Z,29.96
2018-08-04T09:17:50.281Z,30.04
2018-08-04T09:21:14.964Z,30.25
2018-08-04T09:24:39.629Z,30.50
2018-08-04T09:28:04.372Z,30.81
2018-08-04T09:31:29.046Z,30.63
2018-08-04T09:34:53.727Z,30.80
2018-08-04T09:38:18.388Z,30.68
2018-08-04T09:41:43.094Z,30.86
2018-08-04T09:45:09.056Z,30.95
2018-08-04T09:48:33.864Z,30.98
2018-08-04T09:51:58.577Z,31.42
2018-08-04T09:55:23.322Z,31.44
2018-08-04T09:58:48.066Z,31.41
2018-08-04T10:02:13.974Z,31.43
2018-08-04T10:05:38.623Z,31.63
2018-08-04T10:09:03.942Z,31.76
2018-08-04T10:12:28.596Z,31.80
2018-08-04T10:15:53.275Z,31.55
2018-08-04T10:19:17.917Z,31.61
2018-08-04T10:22:42.687Z,31.87
2018-08-04T10:26:07.500Z,32.11
2018-08-04T10:29:32.181Z,32.29
2018-08-04T10:32:56.948Z,32.61
2018-08-04T10:36:21.707Z,32.16
2018-08-04T10:39:46.371Z,32.54
2018-08-04T10:43:11.367Z,32.48
2018-08-04T10:46:36.119Z,32.68
2018-08-04T10:50:00.801Z,32.60
2018-08-04T10:53:25.506Z,32.89
2018-08-04T10:56:50.172Z,32.70
2018-08-04T11:00:14.916Z,32.66
2018-08-04T11:03:39.557Z,32.92
2018-08-04T11:07:04.410Z,33.30
2018-08-04T11:10:29.214Z,33.36
2018-08-04T11:13:54.018Z,33.24
2018-08-04T11:17:23.058Z,33.28
2018-08-04T11:20:48.134Z,33.43
2018-08-04T11:24:13.190Z,33.69
2018-08-04T11:27:38.089Z,33.90
2018-08-04T11:31:03.090Z,34.26
2018-08-04T11:34:28.254Z,34.40
2018-08-04T11:37:54.397Z,34.39
2018-08-04T11:41:20.114Z,34.48
2018-08-04T11:44:46.430Z,33.84
2018-08-04T11:48:11.781Z,34.09
2018-08-04T11:51:37.815Z,34.29
2018-08-04T11:55:02.481Z,34.41
2018-08-04T11:58:27.156Z,34.30
2018-08-04T12:01:51.898Z,34.24
2018-08-04T12:05:16.589Z,34.68
2018-08-04T12:08:41.279Z,34.59
2018-08-04T12:12:07.058Z,34.93
2018-08-04T12:15:32.851Z,34.90
2018-08-04T12:18:57.784Z,35.09
2018-08-04T12:22:23.739Z,35.25
2018-08-04T12:25:48.496Z,35.61
2018-08-04T12:29:13.546Z,35.52
2018-08-04T12:32:38.521Z,35.37
2018-08-04T12:36:04.204Z,35.24
2018-08-04T12:39:29.499Z,35.51
2018-08-04T12:42:54.185Z,35.38
2018-08-04T12:46:19.700Z,34.97
2018-08-04T12:49:46.432Z,34.58
2018-08-04T12:53:11.172Z,34.14
2018-08-04T12:56:35.921Z,34.22
2018-08-04T13:00:00.762Z,33.92
2018-08-04T13:03:25.522Z,33.38
2018-08-04T13:06:50.344Z,33.41
2018-08-04T13:10:15.059Z,33.52
2018-08-04T13:13:39.822Z,33.18
2018-08-04T13:17:05.138Z,33.30
2018-08-04T13:20:29.976Z,33.48
2018-08-04T13:23:54.781Z,33.77
2018-08-04T13:27:19.550Z,33.83
2018-08-04T13:30:44.247Z,33.78
2018-08-04T13:34:09.084Z,34.03
2018-08-04T13:37:33.823Z,34.13
2018-08-04T13:40:58.584Z,33.98
2018-08-04T13:44:23.421Z,34.13
2018-08-04T13:47:48.080Z,34.19
2018-08-04T13:51:12.930Z,33.91
2018-08-04T13:54:37.603Z,33.98
2018-08-04T13:58:02.272Z,34.05
2018-08-04T14:01:27.282Z,34.00
2018-08-04T14:04:51.976Z,34.26
2018-08-04T14:08:16.644Z,34.55
2018-08-04T14:11:41.287Z,34.57
2018-08-04T14:15:06.548Z,34.42
2018-08-04T14:18:31.280Z,34.13
2018-08-04T14:21:56.084Z,34.24
2018-08-04T14:25:20.800Z,34.33
2018-08-04T14:28:45.519Z,34.35
2018-08-04T14:32:10.160Z,34.35
2018-08-04T14:35:34.815Z,34.43
2018-08-04T14:38:59.458Z,33.95
2018-08-04T14:42:24.224Z,34.00
2018-08-04T14:45:48.924Z,34.08
2018-08-04T14:49:13.583Z,34.21
2018-08-04T14:52:38.280Z,34.32
2018-08-04T14:56:02.942Z,34.65
2018-08-04T14:59:27.634Z,34.64
2018-08-04T15:02:52.446Z,34.91
2018-08-04T15:06:17.080Z,34.93
2018-08-04T15:09:41.788Z,34.97
2018-08-04T15:13:06.504Z,35.22
2018-08-04T15:16:31.237Z,35.10
2018-08-04T15:19:55.898Z,35.44
2018-08-04T15:23:20.549Z,35.40
2018-08-04T15:26:45.222Z,35.53
2018-08-04T15:30:09.986Z,35.82
2018-08-04T15:33:34.720Z,35.84
2018-08-04T15:36:59.389Z,35.74
2018-08-04T15:40:24.052Z,35.91
2018-08-04T15:43:48.776Z,36.15
2018-08-04T15:47:13.430Z,35.40
2018-08-04T15:50:38.168Z,35.13
2018-08-04T15:54:03.134Z,35.65
2018-08-04T15:57:27.940Z,34.96
2018-08-04T16:00:52.661Z,34.99
2018-08-04T16:04:17.345Z,35.20
2018-08-04T16:07:42.156Z,35.12
2018-08-04T16:11:07.182Z,35.36
2018-08-04T16:14:31.850Z,35.61
2018-08-04T16:17:56.681Z,35.98
2018-08-04T16:21:21.358Z,35.80
2018-08-04T16:24:46.166Z,35.88
2018-08-04T16:28:10.877Z,36.03
2018-08-04T16:31:35.741Z,35.97
2018-08-04T16:35:00.440Z,35.40
2018-08-04T16:38:25.169Z,35.35
2018-08-04T16:41:49.922Z,35.31
2018-08-04T16:45:14.549Z,35.04
2018-08-04T16:48:39.331Z,35.05
2018-08-04T16:52:04.094Z,35.10
2018-08-04T16:55:28.719Z,34.93
2018-08-04T16:58:53.323Z,34.58
2018-08-04T17:02:18.013Z,34.38
2018-08-04T17:05:42.716Z,34.29
2018-08-04T17:09:11.190Z,33.92
2018-08-04T17:12:35.961Z,33.80
2018-08-04T17:16:00.608Z,33.45
2018-08-04T17:19:25.447Z,33.52
2018-08-04T17:22:50.208Z,33.52
2018-08-04T17:26:14.931Z,33.39
2018-08-04T17:29:39.646Z,33.23
2018-08-04T17:33:04.353Z,32.96
2018-08-04T17:36:29.040Z,33.05
2018-08-04T17:39:53.822Z,33.21
2018-08-04T17:43:18.530Z,33.13
2018-08-04T17:46:43.314Z,33.16
2018-08-04T17:50:08.020Z,32.97
2018-08-04T17:53:32.682Z,33.00
2018-08-04T17:56:57.388Z,32.88
2018-08-04T18:00:21.989Z,32.78
2018-08-04T18:03:46.669Z,32.76
2018-08-04T18:07:11.480Z,32.65
2018-08-04T18:10:36.192Z,32.55
2018-08-04T18:14:00.824Z,32.52
2018-08-04T18:17:25.462Z,32.47
2018-08-04T18:20:50.202Z,32.45
2018-08-04T18:24:14.862Z,32.35
2018-08-04T18:27:39.567Z,32.41
2018-08-04T18:31:04.267Z,32.33
2018-08-04T18:34:29.011Z,32.21
2018-08-04T18:37:53.785Z,32.13
2018-08-04T18:41:18.541Z,32.08
2018-08-04T18:44:43.314Z,31.91
2018-08-04T18:48:08.066Z,31.83
2018-08-04T18:51:32.807Z,31.83
2018-08-04T18:54:57.736Z,31.78
2018-08-04T18:58:22.393Z,31.73
2018-08-04T19:01:47.135Z,31.58
2018-08-04T19:05:11.917Z,31.54
2018-08-04T19:08:36.653Z,31.48
2018-08-04T19:12:01.380Z,31.41
2018-08-04T19:15:26.110Z,31.31
2018-08-04T19:18:50.951Z,31.19
2018-08-04T19:22:15.673Z,31.12
2018-08-04T19:25:40.920Z,30.88
2018-08-04T19:29:05.658Z,30.73
2018-08-04T19:32:31.334Z,30.56
2018-08-04T19:35:56.127Z,30.43
2018-08-04T19:39:20.803Z,30.30
2018-08-04T19:42:45.618Z,30.21
2018-08-04T19:46:10.341Z,30.15
2018-08-04T19:49:35.106Z,30.02
2018-08-04T19:52:59.827Z,30.01
2018-08-04T19:56:24.439Z,29.90
2018-08-04T19:59:49.155Z,29.84
2018-08-04T20:03:13.849Z,29.73
2018-08-04T20:06:38.490Z,29.63
2018-08-04T20:10:03.253Z,29.67
2018-08-04T20:13:27.892Z,29.64
2018-08-04T20:16:52.648Z,29.50
2018-08-04T20:20:17.539Z,29.48
2018-08-04T20:23:42.545Z,29.43
2018-08-04T20:27:08.993Z,29.38
2018-08-04T20:30:34.018Z,29.25
2018-08-04T20:33:59.044Z,29.17
2018-08-04T20:37:23.712Z,29.15
2018-08-04T20:40:48.444Z,29.03
2018-08-04T20:44:13.468Z,29.11
2018-08-04T20:47:38.260Z,29.06
2018-08-04T20:52:08.486Z,28.90
2018-08-04T20:55:33.256Z,28.86
2018-08-04T20:58:57.913Z,28.71
2018-08-04T21:02:22.597Z,28.72
2018-08-04T21:05:47.248Z,28.68
2018-08-04T21:09:11.902Z,28.65
2018-08-04T21:12:36.637Z,28.59
2018-08-04T21:16:01.410Z,28.43
2018-08-04T21:19:26.522Z,28.51
2018-08-04T21:22:51.471Z,28.36
2018-08-04T21:26:16.079Z,28.23
2018-08-04T21:29:40.709Z,28.33
2018-08-04T21:33:05.476Z,28.12
2018-08-04T21:36:30.934Z,28.27
2018-08-04T21:39:55.679Z,28.06
2018-08-04T21:43:20.517Z,27.92
2018-08-04T21:46:49.304Z,27.95
2018-08-04T21:50:13.983Z,28.01
2018-08-04T21:53:38.770Z,27.95
2018-08-04T21:57:03.604Z,28.03
2018-08-04T22:00:28.427Z,28.10
2018-08-04T22:03:53.148Z,28.03
2018-08-04T22:08:00.050Z,27.81
2018-08-04T22:11:24.758Z,27.81
2018-08-04T22:14:49.428Z,27.69
2018-08-04T22:18:14.092Z,27.58
2018-08-04T22:21:38.773Z,27.64
2018-08-04T22:25:03.452Z,27.41
2018-08-04T22:28:28.092Z,27.33
2018-08-04T22:31:52.782Z,27.40
2018-08-04T22:35:17.508Z,27.43
2018-08-04T22:38:42.116Z,27.47
2018-08-04T22:42:07.077Z,27.10
2018-08-04T22:46:00.700Z,27.15
2018-08-04T22:49:25.345Z,27.17
2018-08-04T22:52:50.204Z,27.33
2018-08-04T22:56:14.828Z,27.33
2018-08-04T22:59:39.411Z,27.43
2018-08-04T23:03:04.191Z,27.42
2018-08-04T23:06:28.830Z,27.30
2018-08-04T23:09:53.449Z,27.43
2018-08-04T23:13:18.356Z,27.45
2018-08-04T23:16:42.980Z,27.34
2018-08-04T23:20:07.614Z,27.33
2018-08-04T23:23:32.279Z,27.40
2018-08-04T23:26:56.897Z,27.38
2018-08-04T23:30:22.116Z,27.25
2018-08-04T23:33:46.727Z,27.21
2018-08-04T23:37:11.272Z,26.95
2018-08-04T23:40:35.916Z,26.99
2018-08-04T23:44:00.541Z,26.80
2018-08-04T23:47:25.172Z,26.69
2018-08-04T23:50:49.828Z,26.92
2018-08-04T23:54:14.442Z,26.79
2018-08-04T23:57:39.096Z,26.78
